KDWH/DWH METAR and TAF weather

Enter ICAO airport designator
Station Type Date Time Source
KDWH METAR 2021/04/18 01:53 UTC NOAA

KDWH 180153Z 35008KT 10SM OVC110 14/09 A3005 RMK AO2 LTG DSNT NE RAB20E49 SLP175 P0000 T01440089


Station Type Date Time Source
KDWH Decoded METAR 2021/04/18 01:53 UTC NOAA

HOUSTON HOOKS MEMORIAL, TX, United States (KDWH) 30-04N 95-33W 46M
Apr 17, 2021 - 09:53 PM EDT / 2021.04.18 0153 UTC
Wind: from the N (350 degrees) at 9 MPH (8 KT):0
Visibility: 10 mile(s):0
Sky conditions: overcast
Weather: Lightning observed
Precipitation last hour: A trace
Temperature: 57.9 F (14.4 C)
Dew Point: 48.0 F (8.9 C)
Relative Humidity: 69%
Pressure (altimeter): 30.05 in. Hg (1017 hPa)
ob: KDWH 180153Z 35008KT 10SM OVC110 14/09 A3005 RMK AO2 LTG DSNT NE RAB20E49 SLP175 P0000 T01440089
cycle: 2

Station Type Date Time Source
KDWH TAF 2017/02/07 15:09 UTC NOAA

TAF
AMD KDWH 071507Z 0715/0812 23010KT P6SM BKN015
TEMPO 0715/0719 SCT015
FM071900 25010KT P6SM SCT025
FM080100 22005KT P6SM SCT250
TEMPO 0807/0809 3SM BR BKN013
FM080900 VRB03KT 2SM BR OVC008

Example: see airport list